createdAt,value
2023-04-25T00:02:22.845Z,98314.47
2023-04-25T00:05:03.614Z,98307.09
2023-04-25T00:07:43.168Z,98306.58
2023-04-25T00:10:16.914Z,98305.61
2023-04-25T00:16:21.430Z,98311.40
2023-04-25T00:18:55.571Z,98310.70
2023-04-25T00:21:33.375Z,98306.85
2023-04-25T00:24:06.579Z,98305.33
2023-04-25T00:26:40.105Z,98297.22
2023-04-25T00:29:13.553Z,98300.54
2023-04-25T00:31:47.089Z,98295.89
2023-04-25T00:34:20.211Z,98298.48
2023-04-25T00:36:54.006Z,98298.92
2023-04-25T00:39:27.904Z,98297.09
2023-04-25T00:42:01.005Z,98299.07
2023-04-25T00:44:38.583Z,98302.23
2023-04-25T00:47:14.373Z,98301.67
2023-04-25T00:49:47.153Z,98296.69
2023-04-25T00:52:23.988Z,98296.04
2023-04-25T00:54:57.410Z,98295.61
2023-04-25T00:57:30.932Z,98300.04
2023-04-25T01:00:07.949Z,98301.86
2023-04-25T01:02:42.171Z,98307.89
2023-04-25T01:05:15.341Z,98304.93
2023-04-25T01:07:49.258Z,98303.27
2023-04-25T01:10:55.802Z,98302.96
2023-04-25T01:13:28.575Z,98305.89
2023-04-25T01:16:27.436Z,98307.95
2023-04-25T01:19:01.485Z,98308.07
2023-04-25T01:21:34.770Z,98305.20
2023-04-25T01:24:09.154Z,98302.34
2023-04-25T01:27:02.488Z,98302.54
2023-04-25T01:29:36.570Z,98299.24
2023-04-25T01:32:11.347Z,98301.36
2023-04-25T01:34:44.576Z,98301.77
2023-04-25T01:37:31.969Z,98302.45
2023-04-25T01:40:07.263Z,98294.98
2023-04-25T01:42:43.920Z,98297.21
2023-04-25T01:45:21.312Z,98294.22
2023-04-25T01:47:54.754Z,98298.78
2023-04-25T01:50:31.169Z,98299.73
2023-04-25T01:53:17.242Z,98304.40
2023-04-25T01:55:53.363Z,98307.95
2023-04-25T01:59:03.990Z,98311.23
2023-04-25T02:01:36.903Z,98315.03
2023-04-25T02:04:15.922Z,98316.38
2023-04-25T02:06:52.655Z,98317.77
2023-04-25T02:09:26.183Z,98319.41
2023-04-25T02:12:00.110Z,98321.65
2023-04-25T02:14:32.142Z,98316.35
2023-04-25T02:17:07.759Z,98321.34
2023-04-25T02:19:41.315Z,98320.86
2023-04-25T02:22:14.282Z,98317.16
2023-04-25T02:24:48.829Z,98319.34
2023-04-25T02:27:22.187Z,98321.73
2023-04-25T02:29:56.189Z,98319.05
2023-04-25T02:32:29.551Z,98321.18
2023-04-25T02:35:06.024Z,98321.44
2023-04-25T02:37:40.866Z,98323.13
2023-04-25T02:40:15.647Z,98323.38
2023-04-25T02:42:49.146Z,98324.67
2023-04-25T02:45:22.765Z,98325.02
2023-04-25T02:47:56.055Z,98328.19
2023-04-25T02:50:29.312Z,98326.58
2023-04-25T02:53:02.531Z,98322.71
2023-04-25T02:55:36.337Z,98321.42
2023-04-25T02:58:10.255Z,98323.19
2023-04-25T03:00:43.926Z,98321.96
2023-04-25T03:03:19.251Z,98324.83
2023-04-25T03:05:54.347Z,98321.05
2023-04-25T03:08:34.414Z,98321.94
2023-04-25T03:11:07.679Z,98322.35
2023-04-25T03:13:40.654Z,98326.40
2023-04-25T03:16:13.805Z,98328.15
2023-04-25T03:18:46.807Z,98345.09
2023-04-25T03:21:19.708Z,98349.22
2023-04-25T03:23:53.653Z,98351.33
2023-04-25T03:26:26.755Z,98358.34
2023-04-25T03:29:00.735Z,98358.37
2023-04-25T03:31:34.187Z,98361.24
2023-04-25T03:34:06.173Z,98361.83
2023-04-25T03:36:41.638Z,98361.96
2023-04-25T03:39:18.591Z,98363.67
2023-04-25T03:41:51.410Z,98361.66
2023-04-25T03:44:26.332Z,98363.46
2023-04-25T03:47:00.488Z,98364.17
2023-04-25T03:49:34.657Z,98363.63
2023-04-25T03:52:08.881Z,98362.04
2023-04-25T03:54:44.959Z,98363.35
2023-04-25T03:57:18.642Z,98367.38
2023-04-25T04:00:04.141Z,98371.77
2023-04-25T04:02:38.733Z,98374.48
2023-04-25T04:05:11.951Z,98378.06
2023-04-25T04:07:45.943Z,98375.39
2023-04-25T04:10:18.551Z,98375.82
2023-04-25T04:12:51.605Z,98379.08
2023-04-25T04:15:26.323Z,98383.06
2023-04-25T04:18:04.545Z,98384.81
2023-04-25T04:20:38.245Z,98395.66
2023-04-25T04:23:11.796Z,98388.67
2023-04-25T04:25:45.074Z,98393.45
2023-04-25T04:28:21.291Z,98389.90
2023-04-25T04:30:54.259Z,98394.55
2023-04-25T04:33:27.706Z,98386.38
2023-04-25T04:36:00.728Z,98390.67
2023-04-25T04:38:40.070Z,98398.23
2023-04-25T04:41:14.170Z,98403.23
2023-04-25T04:43:48.198Z,98398.65
2023-04-25T04:46:21.986Z,98402.26
2023-04-25T04:49:01.763Z,98401.64
2023-04-25T04:51:35.451Z,98408.52
2023-04-25T04:54:22.846Z,98407.20
2023-04-25T04:56:56.452Z,98409.20
2023-04-25T04:59:28.047Z,98407.52
2023-04-25T05:02:01.080Z,98408.21
2023-04-25T05:04:34.108Z,98405.78
2023-04-25T05:07:10.519Z,98407.09
2023-04-25T05:09:43.799Z,98408.73
2023-04-25T05:12:17.720Z,98405.59
2023-04-25T05:14:50.500Z,98404.59
2023-04-25T05:17:24.750Z,98401.83
2023-04-25T05:20:04.229Z,98405.63
2023-04-25T05:22:39.376Z,98407.66
2023-04-25T05:25:12.682Z,98404.86
2023-04-25T05:27:45.355Z,98408.62
2023-04-25T05:30:22.598Z,98410.20
2023-04-25T05:32:56.152Z,98413.45
2023-04-25T05:35:35.261Z,98418.27
2023-04-25T05:38:08.301Z,98425.77
2023-04-25T05:40:41.328Z,98425.84
2023-04-25T05:43:16.727Z,98429.34
2023-04-25T05:45:52.757Z,98434.52
2023-04-25T05:48:26.319Z,98440.47
2023-04-25T05:50:59.745Z,98440.77
2023-04-25T05:53:32.862Z,98432.39
2023-04-25T05:56:06.087Z,98429.19
2023-04-25T05:58:42.764Z,98428.48
2023-04-25T06:01:16.811Z,98426.89
2023-04-25T06:04:02.032Z,98430.42
2023-04-25T06:06:36.041Z,98435.43
2023-04-25T06:09:08.902Z,98439.55
2023-04-25T06:11:42.516Z,98444.55
2023-04-25T06:14:19.018Z,98445.95
2023-04-25T06:16:54.243Z,98443.76
2023-04-25T06:19:27.489Z,98446.80
2023-04-25T06:22:00.572Z,98449.06
2023-04-25T06:24:34.085Z,98449.83
2023-04-25T06:27:07.564Z,98445.45
2023-04-25T06:29:40.954Z,98447.95
2023-04-25T06:32:13.923Z,98450.55
2023-04-25T06:34:47.885Z,98447.02
2023-04-25T06:37:21.029Z,98446.16
2023-04-25T06:39:55.285Z,98447.85
2023-04-25T06:42:30.955Z,98449.91
2023-04-25T06:45:04.940Z,98451.08
2023-04-25T06:47:39.113Z,98449.55
2023-04-25T06:50:12.731Z,98451.44
2023-04-25T06:52:46.163Z,98454.54
2023-04-25T06:55:19.424Z,98446.86
2023-04-25T06:57:52.691Z,98451.78
2023-04-25T07:00:26.027Z,98450.42
2023-04-25T07:02:59.725Z,98448.22
2023-04-25T07:05:33.548Z,98447.18
2023-04-25T07:08:07.772Z,98450.28
2023-04-25T07:10:41.913Z,98455.13
2023-04-25T07:13:15.482Z,98452.38
2023-04-25T07:15:49.910Z,98453.51
2023-04-25T07:18:23.291Z,98455.30
2023-04-25T07:20:56.666Z,98453.88
2023-04-25T07:23:30.042Z,98459.04
2023-04-25T07:26:03.232Z,98458.41
2023-04-25T07:28:39.864Z,98457.65
2023-04-25T07:31:12.300Z,98458.09
2023-04-25T07:33:48.232Z,98457.02
2023-04-25T07:36:24.657Z,98474.14
2023-04-25T07:39:17.921Z,98469.52
2023-04-25T07:41:52.486Z,98466.04
2023-04-25T07:44:27.550Z,98468.83
2023-04-25T07:47:01.429Z,98468.92
2023-04-25T07:49:47.794Z,98472.23
2023-04-25T07:52:24.147Z,98472.64
2023-04-25T07:54:57.105Z,98475.63
2023-04-25T07:57:34.421Z,98482.83
2023-04-25T08:00:13.689Z,98486.71
2023-04-25T08:02:47.770Z,98487.11
2023-04-25T08:05:22.745Z,98488.42
2023-04-25T08:07:58.188Z,98489.10
2023-04-25T08:10:31.623Z,98493.71
2023-04-25T08:13:04.905Z,98495.47
2023-04-25T08:15:38.073Z,98498.13
2023-04-25T08:18:11.002Z,98498.20
2023-04-25T08:20:43.854Z,98500.14
2023-04-25T08:23:17.281Z,98508.63
2023-04-25T08:25:50.704Z,98508.58
2023-04-25T08:28:23.834Z,98507.67
2023-04-25T08:30:56.525Z,98505.38
2023-04-25T08:33:30.720Z,98511.45
2023-04-25T08:36:04.411Z,98509.33
2023-04-25T08:38:39.048Z,98510.27
2023-04-25T08:41:14.594Z,98511.65
2023-04-25T08:44:11.959Z,98513.95
2023-04-25T08:46:51.947Z,98519.92
2023-04-25T08:49:28.561Z,98527.39
2023-04-25T08:52:07.893Z,98529.99
2023-04-25T08:54:46.611Z,98537.50
2023-04-25T08:57:22.225Z,98542.38
2023-04-25T09:00:14.959Z,98545.95
2023-04-25T09:02:50.313Z,98551.52
2023-04-25T09:05:24.996Z,98558.77
2023-04-25T09:07:58.786Z,98556.04
2023-04-25T09:13:17.613Z,98563.12
2023-04-25T09:15:59.042Z,98569.39
2023-04-25T09:18:34.180Z,98566.42
2023-04-25T09:21:14.681Z,98568.82
2023-04-25T09:23:53.424Z,98574.44
2023-04-25T09:26:31.184Z,98574.09
2023-04-25T09:29:11.564Z,98572.32
2023-04-25T09:31:44.414Z,98574.20
2023-04-25T09:34:18.913Z,98573.81
2023-04-25T09:36:52.822Z,98573.89
2023-04-25T09:39:27.915Z,98573.89
2023-04-25T09:42:02.291Z,98575.23
2023-04-25T09:44:35.396Z,98571.89
2023-04-25T09:47:13.529Z,98575.13
2023-04-25T09:49:46.848Z,98577.27
2023-04-25T09:52:23.874Z,98580.97
2023-04-25T09:54:57.847Z,98587.75
2023-04-25T09:57:30.773Z,98587.39
2023-04-25T10:00:12.999Z,98595.41
2023-04-25T10:02:50.881Z,98599.23
2023-04-25T10:05:27.214Z,98599.04
2023-04-25T10:08:05.135Z,98601.85
2023-04-25T10:10:42.773Z,98604.57
2023-04-25T10:13:17.062Z,98606.94
2023-04-25T10:16:00.432Z,98610.16
2023-04-25T10:18:37.790Z,98612.82
2023-04-25T10:21:13.013Z,98615.42
2023-04-25T10:23:51.525Z,98614.30
2023-04-25T10:26:26.427Z,98620.25
2023-04-25T10:29:01.503Z,98616.49
2023-04-25T10:31:35.088Z,98617.40
2023-04-25T10:34:08.475Z,98618.40
2023-04-25T10:36:41.883Z,98617.69
2023-04-25T10:39:15.584Z,98619.17
2023-04-25T10:42:04.104Z,98620.51
2023-04-25T10:44:40.999Z,98622.44
2023-04-25T10:47:14.528Z,98625.58
2023-04-25T10:49:55.418Z,98624.85
2023-04-25T10:52:30.271Z,98625.97
2023-04-25T10:55:06.117Z,98624.15
2023-04-25T10:57:46.785Z,98627.55
2023-04-25T11:00:26.015Z,98624.25
2023-04-25T11:03:04.809Z,98625.31
2023-04-25T11:05:47.619Z,98626.84
2023-04-25T11:08:52.153Z,98625.93
2023-04-25T11:11:28.410Z,98633.61
2023-04-25T11:14:01.692Z,98633.05
2023-04-25T11:16:34.917Z,98638.75
2023-04-25T11:19:07.551Z,98640.95
2023-04-25T11:21:39.912Z,98643.20
2023-04-25T11:24:13.782Z,98647.05
2023-04-25T11:26:50.299Z,98648.52
2023-04-25T11:29:38.466Z,98650.48
2023-04-25T11:32:11.865Z,98651.43
2023-04-25T11:34:47.783Z,98654.61
2023-04-25T11:37:21.331Z,98654.42
2023-04-25T11:40:15.948Z,98655.73
2023-04-25T11:42:49.816Z,98654.04
2023-04-25T11:45:25.854Z,98656.37
2023-04-25T11:47:58.916Z,98654.61
2023-04-25T11:50:32.165Z,98656.02
2023-04-25T11:53:04.887Z,98659.98
2023-04-25T11:55:38.790Z,98663.95
2023-04-25T11:58:15.454Z,98662.05
2023-04-25T12:00:51.195Z,98663.16
2023-04-25T12:03:30.867Z,98662.30
2023-04-25T12:06:09.231Z,98662.79
2023-04-25T12:09:02.752Z,98660.27
2023-04-25T12:12:20.501Z,98666.59
2023-04-25T12:14:54.063Z,98666.96
2023-04-25T12:17:27.252Z,98671.84
2023-04-25T12:20:12.546Z,98671.59
2023-04-25T12:22:58.981Z,98668.06
2023-04-25T12:25:57.572Z,98671.51
2023-04-25T12:28:43.865Z,98671.85
2023-04-25T12:31:18.121Z,98678.38
2023-04-25T12:33:53.815Z,98677.47
2023-04-25T12:36:27.848Z,98672.70
2023-04-25T12:39:05.923Z,98673.41
2023-04-25T12:41:39.663Z,98677.11
2023-04-25T12:44:13.022Z,98680.86
2023-04-25T12:46:49.411Z,98680.18
2023-04-25T12:49:22.935Z,98677.96
2023-04-25T12:51:55.891Z,98681.59
2023-04-25T12:54:29.908Z,98678.92
2023-04-25T12:57:04.645Z,98682.69
2023-04-25T12:59:43.041Z,98677.19
2023-04-25T13:02:20.715Z,98674.21
2023-04-25T13:04:54.412Z,98674.80
2023-04-25T13:07:27.818Z,98674.05
2023-04-25T13:10:01.700Z,98674.14
2023-04-25T13:12:35.686Z,98668.73
2023-04-25T13:15:19.922Z,98666.55
2023-04-25T13:17:53.409Z,98673.39
2023-04-25T13:20:26.760Z,98669.61
2023-04-25T13:23:01.033Z,98665.83
2023-04-25T13:25:36.149Z,98666.02
2023-04-25T13:28:09.416Z,98666.79
2023-04-25T13:30:45.499Z,98667.58
2023-04-25T13:33:19.271Z,98669.89
2023-04-25T13:36:01.036Z,98671.43
2023-04-25T13:38:37.817Z,98669.83
2023-04-25T13:41:16.252Z,98666.73
2023-04-25T13:43:49.992Z,98667.77
2023-04-25T13:49:09.928Z,98668.54
2023-04-25T13:51:45.633Z,98670.86
2023-04-25T13:54:22.626Z,98673.83
2023-04-25T13:57:00.662Z,98678.98
2023-04-25T13:59:34.549Z,98677.69
2023-04-25T14:02:08.028Z,98679.55
2023-04-25T14:04:42.346Z,98690.02
2023-04-25T14:07:20.977Z,98698.13
2023-04-25T14:09:56.324Z,98705.61
2023-04-25T14:12:29.017Z,98708.88
2023-04-25T14:15:02.739Z,98708.73
2023-04-25T14:17:35.787Z,98714.41
2023-04-25T14:20:10.604Z,98722.66
2023-04-25T14:22:47.184Z,98722.39
2023-04-25T14:25:24.003Z,98721.79
2023-04-25T14:27:56.829Z,98720.98
2023-04-25T14:30:29.905Z,98713.67
2023-04-25T14:33:03.746Z,98720.02
2023-04-25T14:35:40.185Z,98728.25
2023-04-25T14:38:24.738Z,98734.27
2023-04-25T14:40:57.595Z,98737.79
2023-04-25T14:43:30.957Z,98739.06
2023-04-25T14:46:04.275Z,98740.70
2023-04-25T14:48:37.845Z,98740.34
2023-04-25T14:51:11.023Z,98748.14
2023-04-25T14:53:43.940Z,98743.99
2023-04-25T14:56:17.134Z,98746.20
2023-04-25T14:58:50.790Z,98747.81
2023-04-25T15:01:25.712Z,98751.70
2023-04-25T15:04:00.786Z,98757.16
2023-04-25T15:06:34.001Z,98758.32
2023-04-25T15:09:08.688Z,98763.48
2023-04-25T15:11:44.143Z,98764.98
2023-04-25T15:14:20.048Z,98767.30
2023-04-25T15:16:53.184Z,98768.50
2023-04-25T15:19:30.002Z,98769.77
2023-04-25T15:22:03.649Z,98762.48
2023-04-25T15:24:40.489Z,98764.57
2023-04-25T15:27:15.579Z,98760.83
2023-04-25T15:29:48.182Z,98761.23
2023-04-25T15:32:21.854Z,98764.24
2023-04-25T15:34:54.924Z,98762.11
2023-04-25T15:37:28.116Z,98766.45
2023-04-25T15:40:14.579Z,98765.16
2023-04-25T15:42:52.113Z,98769.08
2023-04-25T15:45:27.049Z,98768.74
2023-04-25T15:48:00.703Z,98763.09
2023-04-25T15:50:34.234Z,98767.29
2023-04-25T15:53:09.178Z,98767.89
2023-04-25T15:55:42.578Z,98764.31
2023-04-25T15:58:15.726Z,98764.33
2023-04-25T16:00:52.114Z,98760.88
2023-04-25T16:03:25.318Z,98763.75
2023-04-25T16:05:59.472Z,98766.92
2023-04-25T16:08:36.908Z,98766.39
2023-04-25T16:11:09.981Z,98764.67
2023-04-25T16:13:46.412Z,98764.39
2023-04-25T16:16:24.786Z,98767.13
2023-04-25T16:19:02.409Z,98768.80
2023-04-25T16:21:35.244Z,98768.51
2023-04-25T16:24:08.867Z,98768.70
2023-04-25T16:26:45.087Z,98767.48
2023-04-25T16:29:18.347Z,98769.10
2023-04-25T16:31:52.903Z,98768.77
2023-04-25T16:34:30.678Z,98776.99
2023-04-25T16:37:05.674Z,98781.82
2023-04-25T16:39:39.281Z,98781.61
2023-04-25T16:42:12.356Z,98778.39
2023-04-25T16:44:53.779Z,98778.52
2023-04-25T16:47:30.763Z,98783.48
2023-04-25T16:50:04.168Z,98784.27
2023-04-25T16:52:37.369Z,98790.45
2023-04-25T16:55:10.451Z,98784.98
2023-04-25T16:57:49.586Z,98788.81
2023-04-25T17:00:22.606Z,98788.11
2023-04-25T17:02:55.509Z,98788.98
2023-04-25T17:05:34.453Z,98790.56
2023-04-25T17:08:10.096Z,98789.25
2023-04-25T17:10:48.786Z,98787.09
2023-04-25T17:13:31.155Z,98788.28
2023-04-25T17:16:06.158Z,98791.48
2023-04-25T17:18:41.824Z,98790.04
2023-04-25T17:21:18.952Z,98795.06
2023-04-25T17:23:55.254Z,98798.35
2023-04-25T17:26:27.954Z,98804.95
2023-04-25T17:29:03.946Z,98809.17
2023-04-25T17:31:37.750Z,98804.13
2023-04-25T17:34:12.643Z,98807.66
2023-04-25T17:36:49.570Z,98803.59
2023-04-25T17:39:22.854Z,98807.02
2023-04-25T17:41:55.657Z,98809.98
2023-04-25T17:44:28.676Z,98814.84
2023-04-25T17:47:06.604Z,98816.80
2023-04-25T17:49:41.774Z,98818.30
2023-04-25T17:52:15.311Z,98816.79
2023-04-25T17:54:49.609Z,98819.90
2023-04-25T17:57:23.433Z,98818.86
2023-04-25T17:59:58.492Z,98817.44
2023-04-25T18:02:32.506Z,98824.53
2023-04-25T18:05:10.121Z,98823.36
2023-04-25T18:07:43.737Z,98829.17
2023-04-25T18:10:15.659Z,98833.10
2023-04-25T18:12:47.509Z,98831.52
2023-04-25T18:15:23.116Z,98836.16
2023-04-25T18:17:58.332Z,98838.54
2023-04-25T18:20:32.277Z,98840.86
2023-04-25T18:23:06.678Z,98842.44
2023-04-25T18:25:40.563Z,98846.23
2023-04-25T18:28:15.767Z,98851.64
2023-04-25T18:30:50.508Z,98858.08
2023-04-25T18:33:24.464Z,98863.19
2023-04-25T18:36:00.477Z,98863.06
2023-04-25T18:38:36.049Z,98863.65
2023-04-25T18:41:34.404Z,98867.55
2023-04-25T18:44:09.651Z,98869.68
2023-04-25T18:46:47.293Z,98870.06
2023-04-25T18:49:22.979Z,98870.96
2023-04-25T18:51:59.061Z,98871.31
2023-04-25T18:54:33.645Z,98872.01
2023-04-25T18:57:10.794Z,98873.05
2023-04-25T18:59:46.344Z,98881.23
2023-04-25T19:02:21.628Z,98883.68
2023-04-25T19:04:55.141Z,98876.30
2023-04-25T19:07:29.889Z,98883.77
2023-04-25T19:10:05.676Z,98883.84
2023-04-25T19:12:47.478Z,98885.85
2023-04-25T19:15:21.284Z,98885.71
2023-04-25T19:17:55.730Z,98889.17
2023-04-25T19:20:29.093Z,98893.58
2023-04-25T19:23:05.822Z,98892.98
2023-04-25T19:25:39.688Z,98893.91
2023-04-25T19:28:16.032Z,98894.06
2023-04-25T19:31:03.119Z,98896.22
2023-04-25T19:33:37.533Z,98891.25
2023-04-25T19:36:14.684Z,98894.58
2023-04-25T19:38:47.587Z,98889.14
2023-04-25T19:41:20.844Z,98887.27
2023-04-25T19:43:56.438Z,98889.83
2023-04-25T19:46:30.065Z,98891.30
2023-04-25T19:49:07.408Z,98891.88
2023-04-25T19:51:40.938Z,98893.34
2023-04-25T19:54:13.822Z,98885.42
2023-04-25T19:56:47.357Z,98881.48
2023-04-25T19:59:25.462Z,98879.52
2023-04-25T20:02:02.328Z,98883.79
2023-04-25T20:04:36.114Z,98881.75
2023-04-25T20:07:09.930Z,98885.16
2023-04-25T20:09:44.347Z,98887.51
2023-04-25T20:12:19.283Z,98891.89
2023-04-25T20:14:53.413Z,98884.27
2023-04-25T20:17:27.682Z,98887.64
2023-04-25T20:20:04.737Z,98888.80
2023-04-25T20:22:41.552Z,98884.84
2023-04-25T20:25:15.460Z,98890.27
2023-04-25T20:27:53.507Z,98885.61
2023-04-25T20:30:28.924Z,98890.20
2023-04-25T20:33:05.768Z,98889.60
2023-04-25T20:35:43.005Z,98888.20
2023-04-25T20:38:17.059Z,98887.55
2023-04-25T20:40:52.417Z,98885.70
2023-04-25T20:43:28.467Z,98885.94
2023-04-25T20:46:05.024Z,98892.41
2023-04-25T20:48:38.681Z,98885.35
2023-04-25T20:51:14.880Z,98889.73
2023-04-25T20:53:48.667Z,98888.55
2023-04-25T20:56:22.517Z,98889.28
2023-04-25T20:58:57.872Z,98890.73
2023-04-25T21:01:34.643Z,98890.80
2023-04-25T21:04:11.683Z,98887.73
2023-04-25T21:06:45.645Z,98885.32
2023-04-25T21:09:20.001Z,98883.03
2023-04-25T21:11:53.742Z,98885.41
2023-04-25T21:14:27.127Z,98886.70
2023-04-25T21:17:00.310Z,98893.95
2023-04-25T21:19:34.455Z,98891.33
2023-04-25T21:22:10.399Z,98892.38
2023-04-25T21:24:44.596Z,98891.16
2023-04-25T21:27:21.507Z,98889.05
2023-04-25T21:29:54.832Z,98888.33
2023-04-25T21:32:31.350Z,98884.42
2023-04-25T21:35:04.488Z,98881.61
2023-04-25T21:37:39.430Z,98885.98
2023-04-25T21:40:13.398Z,98886.70
2023-04-25T21:42:57.388Z,98884.29
2023-04-25T21:45:32.088Z,98885.14
2023-04-25T21:48:06.019Z,98888.95
2023-04-25T21:50:39.036Z,98883.75
2023-04-25T21:53:12.485Z,98886.61
2023-04-25T21:55:45.949Z,98881.98
2023-04-25T21:58:24.868Z,98887.43
2023-04-25T22:00:57.725Z,98888.99
2023-04-25T22:03:36.715Z,98892.39
2023-04-25T22:06:10.404Z,98884.70
2023-04-25T22:08:47.593Z,98887.49
2023-04-25T22:11:27.154Z,98887.43
2023-04-25T22:14:02.571Z,98889.14
2023-04-25T22:16:37.947Z,98888.33
2023-04-25T22:19:12.959Z,98891.86
2023-04-25T22:21:47.019Z,98888.11
2023-04-25T22:24:23.398Z,98881.67
2023-04-25T22:26:58.414Z,98882.34
2023-04-25T22:29:33.461Z,98881.50
2023-04-25T22:32:08.072Z,98882.20
2023-04-25T22:34:42.451Z,98884.19
2023-04-25T22:37:15.136Z,98883.74
2023-04-25T22:39:48.346Z,98883.91
2023-04-25T22:42:21.610Z,98882.77
2023-04-25T22:44:55.779Z,98887.55
2023-04-25T22:47:30.003Z,98880.98
2023-04-25T22:50:07.387Z,98878.41
2023-04-25T22:52:41.750Z,98880.98
2023-04-25T22:55:14.952Z,98881.25
2023-04-25T22:57:48.986Z,98884.64
2023-04-25T23:00:23.623Z,98882.65
2023-04-25T23:02:56.781Z,98877.98
2023-04-25T23:05:31.677Z,98876.50
2023-04-25T23:08:10.123Z,98871.63
2023-04-25T23:10:43.850Z,98870.23
2023-04-25T23:13:17.763Z,98867.58
2023-04-25T23:15:51.418Z,98869.27
2023-04-25T23:18:24.289Z,98862.42
2023-04-25T23:21:00.610Z,98862.02
2023-04-25T23:23:36.974Z,98863.00
2023-04-25T23:26:14.132Z,98865.00
2023-04-25T23:28:48.099Z,98864.54
2023-04-25T23:31:21.793Z,98868.27
2023-04-25T23:33:55.552Z,98863.66
2023-04-25T23:36:29.227Z,98865.06
2023-04-25T23:39:03.463Z,98862.18
2023-04-25T23:41:36.754Z,98858.79
2023-04-25T23:44:15.316Z,98860.52
2023-04-25T23:46:51.795Z,98862.88
2023-04-25T23:49:25.615Z,98863.86
2023-04-25T23:51:58.816Z,98865.42
2023-04-25T23:54:32.965Z,98863.85
2023-04-25T23:57:06.272Z,98864.98
2023-04-25T23:59:39.427Z,98864.20
